Time;durP1;ratioP1;P1;durP2;ratioP2;P2;SDS_P1;SDS_P2;PMS_P1;PMS_P2;Temp;Humidity;BMP_temperature;BMP_pressure;BME280_temperature;BME280_humidity;BME280_pressure;Samples;Min_cycle;Max_cycle;Signal;HPM_P1;HPM_P2
2023/05/08 00:00:11;;;;;;;2.70;2.50;;;8.00;99.90;;;;;;4997176;28;20247;-75
2023/05/08 00:02:40;;;;;;;2.90;2.47;;;8.00;99.90;;;;;;5005491;28;20218;-75
2023/05/08 00:05:07;;;;;;;3.00;2.70;;;7.90;99.90;;;;;;5005271;28;20829;-75
2023/05/08 00:07:35;;;;;;;3.40;3.00;;;7.90;99.90;;;;;;4998519;28;20231;-74
2023/05/08 00:10:02;;;;;;;2.93;2.60;;;7.90;99.90;;;;;;5004804;28;20230;-74
2023/05/08 00:12:28;;;;;;;3.07;2.53;;;7.90;99.90;;;;;;5000207;28;20225;-75
2023/05/08 00:14:55;;;;;;;3.20;2.70;;;7.90;99.90;;;;;;5004650;28;20744;-74
2023/05/08 00:17:22;;;;;;;3.00;2.80;;;7.80;99.90;;;;;;5003683;28;20669;-75
2023/05/08 00:19:50;;;;;;;3.13;2.63;;;7.80;99.90;;;;;;5003465;28;20253;-75
2023/05/08 00:22:17;;;;;;;3.33;2.90;;;7.80;99.90;;;;;;5001976;28;20219;-75
2023/05/08 00:24:44;;;;;;;3.03;2.70;;;7.70;99.90;;;;;;5006565;28;20716;-76
2023/05/08 00:27:11;;;;;;;3.20;2.53;;;7.70;99.90;;;;;;5006331;28;20263;-75
2023/05/08 00:29:39;;;;;;;3.63;3.20;;;7.60;99.90;;;;;;4995507;28;20250;-74
2023/05/08 00:32:06;;;;;;;4.40;2.93;;;7.60;99.90;;;;;;5019813;28;20258;-74
2023/05/08 00:34:33;;;;;;;4.30;2.97;;;7.60;99.90;;;;;;5000310;28;20222;-74
2023/05/08 00:37:01;;;;;;;3.30;3.00;;;7.60;99.90;;;;;;5000133;28;20235;-74
2023/05/08 00:39:28;;;;;;;3.13;2.80;;;7.60;99.90;;;;;;5006646;28;20277;-74
2023/05/08 00:41:55;;;;;;;3.57;3.10;;;7.60;99.90;;;;;;5001575;28;20227;-74
2023/05/08 00:44:22;;;;;;;3.63;3.00;;;7.60;99.90;;;;;;5003848;28;20230;-75
2023/05/08 00:46:49;;;;;;;3.67;3.00;;;7.60;99.90;;;;;;5016368;28;20235;-74
2023/05/08 00:49:17;;;;;;;4.17;3.00;;;7.50;99.90;;;;;;5001332;28;21181;-75
2023/05/08 00:51:46;;;;;;;4.23;2.90;;;7.50;99.90;;;;;;5044080;22;20231;-80
2023/05/08 00:54:15;;;;;;;3.40;3.10;;;7.50;99.90;;;;;;5032320;28;20672;-78
2023/05/08 00:56:43;;;;;;;3.27;2.97;;;7.50;99.90;;;;;;5042336;28;20221;-78
2023/05/08 00:59:16;;;;;;;3.03;2.83;;;7.40;99.90;;;;;;5040444;28;20623;-78
2023/05/08 01:01:43;;;;;;;3.90;3.10;;;7.40;99.90;;;;;;5051192;28;20226;-78
2023/05/08 01:04:10;;;;;;;3.43;3.13;;;7.40;99.90;;;;;;5058468;28;20606;-78
2023/05/08 01:06:37;;;;;;;3.63;3.17;;;7.40;99.90;;;;;;5059210;28;20221;-78
2023/05/08 01:09:04;;;;;;;3.17;2.87;;;7.40;99.90;;;;;;5066114;28;20667;-77
2023/05/08 01:11:37;;;;;;;3.57;2.97;;;7.40;99.90;;;;;;5058676;28;20240;-77
2023/05/08 01:14:13;;;;;;;3.40;3.10;;;7.30;99.90;;;;;;5057792;28;20226;-78
2023/05/08 01:16:44;;;;;;;3.37;3.07;;;7.30;99.90;;;;;;5076290;28;20220;-77
2023/05/08 01:19:42;;;;;;;3.80;3.07;;;7.30;99.90;;;;;;5053495;28;20715;-77
2023/05/08 01:22:24;;;;;;;4.47;3.43;;;7.30;99.90;;;;;;5059243;28;20488;-77
2023/05/08 01:25:30;;;;;;;3.07;2.80;;;7.30;99.90;;;;;;5057817;28;20699;-78
2023/05/08 01:28:35;;;;;;;3.47;3.00;;;7.20;99.90;;;;;;5054208;28;20220;-78
2023/05/08 01:31:15;;;;;;;4.10;3.00;;;7.20;99.90;;;;;;5075437;28;20232;-78
2023/05/08 01:33:49;;;;;;;3.47;3.03;;;7.10;99.90;;;;;;5052074;28;20243;-78
2023/05/08 01:36:26;;;;;;;3.27;2.97;;;7.10;99.90;;;;;;5057432;28;20212;-77
2023/05/08 01:39:01;;;;;;;3.43;2.90;;;7.10;99.90;;;;;;5061098;28;20227;-78
2023/05/08 01:41:31;;;;;;;3.83;3.10;;;7.10;99.90;;;;;;5072275;28;20227;-78
2023/05/08 01:44:10;;;;;;;4.33;3.00;;;7.00;99.90;;;;;;5057343;28;20232;-77
2023/05/08 01:46:37;;;;;;;5.27;2.90;;;7.00;99.90;;;;;;5051607;28;20865;-77
2023/05/08 01:49:08;;;;;;;3.73;2.97;;;7.00;99.90;;;;;;5058984;28;20222;-77
2023/05/08 01:51:40;;;;;;;5.73;2.93;;;7.00;99.90;;;;;;5059690;28;20228;-77
2023/05/08 01:54:10;;;;;;;3.27;2.90;;;7.00;99.90;;;;;;5058059;28;20257;-77
2023/05/08 01:56:39;;;;;;;3.53;3.23;;;6.90;99.90;;;;;;5060453;28;20239;-77
2023/05/08 01:59:08;;;;;;;4.23;3.20;;;6.90;99.90;;;;;;5055504;28;20243;-77
2023/05/08 02:01:36;;;;;;;3.60;3.20;;;6.90;99.90;;;;;;5061019;28;20233;-77
2023/05/08 02:04:05;;;;;;;4.00;3.60;;;6.90;99.90;;;;;;5058070;28;20804;-77
2023/05/08 02:06:33;;;;;;;4.93;3.40;;;6.90;99.90;;;;;;5055204;28;20230;-77
2023/05/08 02:09:00;;;;;;;5.00;3.23;;;6.80;99.90;;;;;;5055144;28;20235;-77
2023/05/08 02:11:30;;;;;;;4.43;3.17;;;6.80;99.90;;;;;;5056169;28;20235;-77
2023/05/08 02:13:59;;;;;;;3.67;3.30;;;6.80;99.90;;;;;;5057906;28;20228;-77
2023/05/08 02:16:28;;;;;;;4.00;3.60;;;6.80;99.90;;;;;;5056012;28;20248;-77
2023/05/08 02:18:57;;;;;;;4.03;3.60;;;6.70;99.90;;;;;;5054556;28;20276;-77
2023/05/08 02:21:26;;;;;;;3.70;3.40;;;6.70;99.90;;;;;;5056255;28;20389;-78
2023/05/08 02:23:56;;;;;;;5.27;3.20;;;6.80;99.90;;;;;;5058327;28;20242;-77
2023/05/08 02:26:25;;;;;;;5.03;3.70;;;6.70;99.90;;;;;;5056588;28;20275;-77
2023/05/08 02:28:53;;;;;;;4.17;3.60;;;6.70;99.90;;;;;;5060069;28;20775;-78
2023/05/08 02:31:21;;;;;;;3.97;3.67;;;6.70;99.90;;;;;;5057481;28;20228;-78
2023/05/08 02:33:49;;;;;;;5.67;3.70;;;6.70;99.90;;;;;;5058468;28;20251;-78
2023/05/08 02:36:17;;;;;;;3.67;3.30;;;6.60;99.90;;;;;;5056641;28;21113;-77
2023/05/08 02:38:50;;;;;;;3.80;3.50;;;6.60;99.90;;;;;;5059976;28;20645;-77
2023/05/08 02:41:20;;;;;;;4.43;4.03;;;6.60;99.90;;;;;;5073873;28;20605;-77
2023/05/08 02:43:47;;;;;;;4.53;3.70;;;6.60;99.90;;;;;;5055790;28;20228;-77
2023/05/08 02:46:18;;;;;;;4.80;3.60;;;6.60;99.90;;;;;;5058338;28;20216;-77
2023/05/08 02:48:54;;;;;;;4.40;4.00;;;6.60;99.90;;;;;;5057660;28;20303;-77
2023/05/08 02:51:26;;;;;;;4.07;3.67;;;6.60;99.90;;;;;;5052218;28;20254;-77
2023/05/08 02:54:01;;;;;;;3.73;3.33;;;6.50;99.90;;;;;;5054419;28;20494;-77
2023/05/08 02:56:34;;;;;;;3.73;3.33;;;6.50;99.90;;;;;;5058376;28;20252;-77
2023/05/08 02:59:10;;;;;;;4.40;3.87;;;6.50;99.90;;;;;;5059441;28;20278;-78
2023/05/08 03:01:45;;;;;;;3.93;3.60;;;6.50;99.90;;;;;;5058440;28;20221;-78
2023/05/08 03:04:21;;;;;;;4.03;3.53;;;6.40;99.90;;;;;;5058311;28;20213;-79
2023/05/08 03:06:49;;;;;;;4.30;3.90;;;6.40;99.90;;;;;;5056276;28;20219;-79
2023/05/08 03:09:21;;;;;;;3.83;3.53;;;6.40;99.90;;;;;;5053089;28;20220;-79
2023/05/08 03:11:50;;;;;;;4.50;3.77;;;6.40;99.90;;;;;;5058872;28;20236;-79
2023/05/08 03:14:22;;;;;;;3.87;3.57;;;6.30;99.90;;;;;;5055243;28;20226;-78
2023/05/08 03:16:52;;;;;;;4.50;4.10;;;6.30;99.90;;;;;;5056531;28;20220;-78
2023/05/08 03:19:23;;;;;;;4.70;3.63;;;6.30;99.90;;;;;;5059833;28;20233;-78
2023/05/08 03:21:53;;;;;;;4.53;4.00;;;6.20;99.90;;;;;;5056903;28;20691;-78
2023/05/08 03:24:23;;;;;;;4.27;3.87;;;6.20;99.90;;;;;;5054203;28;20259;-78
2023/05/08 03:26:51;;;;;;;4.50;3.73;;;6.20;99.90;;;;;;5058746;28;20236;-76
2023/05/08 03:29:18;;;;;;;4.20;3.80;;;6.20;99.90;;;;;;5058525;28;20260;-77
2023/05/08 03:31:47;;;;;;;4.50;4.00;;;6.10;99.90;;;;;;5053533;28;20234;-81
2023/05/08 03:34:15;;;;;;;4.43;4.00;;;6.10;99.90;;;;;;5060691;28;20311;-83
2023/05/08 03:36:42;;;;;;;4.20;3.67;;;6.10;99.90;;;;;;5075396;28;20317;-81
2023/05/08 03:39:09;;;;;;;4.50;4.10;;;6.00;99.90;;;;;;5057070;28;20229;-80
2023/05/08 03:41:38;;;;;;;3.87;3.57;;;6.00;99.90;;;;;;5055359;28;20229;-81
2023/05/08 03:44:06;;;;;;;5.53;4.20;;;6.00;99.90;;;;;;5059467;28;20231;-81
2023/05/08 03:46:35;;;;;;;4.20;3.80;;;6.00;99.90;;;;;;5058266;28;20300;-79
2023/05/08 03:49:05;;;;;;;4.23;3.83;;;5.90;99.90;;;;;;5058385;28;20229;-81
2023/05/08 03:51:32;;;;;;;4.57;4.00;;;5.90;99.90;;;;;;5061681;28;20238;-80
2023/05/08 03:53:59;;;;;;;4.40;4.00;;;5.90;99.90;;;;;;5064670;28;20227;-80
2023/05/08 03:56:27;;;;;;;5.40;3.87;;;5.90;99.90;;;;;;5062047;28;20724;-80
2023/05/08 03:59:01;;;;;;;4.23;3.93;;;5.90;99.90;;;;;;5061693;28;20232;-80
2023/05/08 04:01:40;;;;;;;4.33;3.90;;;5.80;99.90;;;;;;5059992;28;20220;-81
2023/05/08 04:04:15;;;;;;;4.77;3.60;;;5.90;99.90;;;;;;5058460;28;20224;-80
2023/05/08 04:06:49;;;;;;;6.87;4.40;;;5.80;99.90;;;;;;5062344;28;20231;-81
2023/05/08 04:09:20;;;;;;;4.40;4.00;;;5.80;99.90;;;;;;5076088;28;20211;-80
2023/05/08 04:11:56;;;;;;;4.30;3.87;;;5.90;99.90;;;;;;5057823;28;20215;-80
2023/05/08 04:14:30;;;;;;;5.23;4.10;;;5.90;99.90;;;;;;5060642;28;21122;-79
2023/05/08 04:17:06;;;;;;;6.67;4.33;;;5.90;99.90;;;;;;5064326;28;20303;-84
2023/05/08 04:19:37;;;;;;;6.13;4.27;;;5.90;99.90;;;;;;5061924;28;20219;-83
2023/05/08 04:22:07;;;;;;;4.60;4.20;;;6.00;99.90;;;;;;5061140;28;20239;-80
2023/05/08 04:24:40;;;;;;;4.80;4.40;;;6.00;99.90;;;;;;5056604;28;20221;-82
2023/05/08 04:27:09;;;;;;;4.33;3.93;;;6.00;99.90;;;;;;5061919;28;20221;-81
2023/05/08 04:29:37;;;;;;;5.27;4.00;;;6.10;99.90;;;;;;5060493;28;20221;-81
2023/05/08 04:32:06;;;;;;;4.27;3.87;;;6.10;99.90;;;;;;5078081;28;20234;-83
2023/05/08 04:34:35;;;;;;;4.60;4.10;;;6.10;99.90;;;;;;5064086;28;20231;-80
2023/05/08 04:37:02;;;;;;;4.80;4.40;;;6.10;99.90;;;;;;5061032;28;20302;-80
2023/05/08 04:39:29;;;;;;;5.43;4.67;;;6.20;99.90;;;;;;5056512;28;20227;-80
2023/05/08 04:42:01;;;;;;;5.17;4.60;;;6.20;99.90;;;;;;5061521;28;20228;-82
2023/05/08 04:44:29;;;;;;;4.33;3.93;;;6.30;99.90;;;;;;5058942;28;20220;-82
2023/05/08 04:46:57;;;;;;;5.23;4.73;;;6.30;99.90;;;;;;5057163;28;20306;-80
2023/05/08 04:49:26;;;;;;;6.67;4.23;;;6.40;99.90;;;;;;5061239;28;20288;-80
2023/05/08 04:51:52;;;;;;;5.40;4.20;;;6.40;99.90;;;;;;5058952;28;20222;-82
2023/05/08 04:54:19;;;;;;;5.30;4.67;;;6.40;99.90;;;;;;5060853;28;20227;-82
2023/05/08 04:56:46;;;;;;;5.80;5.03;;;6.50;99.90;;;;;;5062116;28;20276;-82
2023/05/08 04:59:13;;;;;;;4.40;4.00;;;6.50;99.90;;;;;;5061885;28;20220;-82
2023/05/08 05:01:39;;;;;;;5.43;4.80;;;6.50;99.90;;;;;;5062988;28;20283;-82
2023/05/08 05:04:07;;;;;;;5.30;4.57;;;6.50;99.90;;;;;;5060605;28;20220;-82
2023/05/08 05:06:34;;;;;;;4.83;4.37;;;6.60;99.90;;;;;;5064117;28;20223;-82
2023/05/08 05:09:01;;;;;;;4.93;4.43;;;6.70;99.90;;;;;;5064508;28;20239;-84
2023/05/08 05:11:28;;;;;;;5.30;4.80;;;6.70;99.90;;;;;;5065802;28;20224;-82
2023/05/08 05:13:54;;;;;;;5.77;4.90;;;6.70;99.90;;;;;;5059284;28;20320;-82
2023/05/08 05:16:21;;;;;;;6.20;4.60;;;6.80;99.90;;;;;;5059601;28;20220;-82
2023/05/08 05:18:48;;;;;;;5.60;4.93;;;6.80;99.90;;;;;;5061893;28;20221;-84
2023/05/08 05:21:17;;;;;;;5.47;4.80;;;6.90;99.90;;;;;;5052799;28;20231;-84
2023/05/08 05:23:44;;;;;;;6.77;4.97;;;7.00;99.90;;;;;;5078396;28;20855;-82
2023/05/08 05:26:11;;;;;;;5.00;4.50;;;7.00;99.90;;;;;;5076508;28;20221;-82
2023/05/08 05:28:38;;;;;;;5.73;5.07;;;7.00;99.90;;;;;;5064121;28;20967;-83
2023/05/08 05:31:06;;;;;;;5.30;4.80;;;7.00;99.90;;;;;;5061186;28;20220;-83
2023/05/08 05:33:32;;;;;;;5.37;4.87;;;7.10;99.90;;;;;;5063402;28;20228;-82
2023/05/08 05:35:59;;;;;;;5.50;4.70;;;7.10;99.90;;;;;;5060673;28;20236;-83
2023/05/08 05:38:28;;;;;;;4.90;4.40;;;7.10;99.90;;;;;;5064434;28;20282;-82
2023/05/08 05:40:55;;;;;;;6.00;5.20;;;7.20;99.90;;;;;;5061766;28;20285;-81
2023/05/08 05:43:22;;;;;;;5.20;4.70;;;7.20;99.90;;;;;;5064747;28;20946;-81
2023/05/08 05:45:49;;;;;;;6.87;5.03;;;7.10;99.90;;;;;;5058197;28;20221;-80
2023/05/08 05:48:16;;;;;;;5.63;4.97;;;7.20;99.90;;;;;;5080893;28;20826;-80
2023/05/08 05:50:43;;;;;;;7.13;5.27;;;7.20;99.90;;;;;;5058338;28;20343;-78
2023/05/08 05:53:09;;;;;;;6.60;5.10;;;7.30;99.90;;;;;;5056977;28;20224;-78
2023/05/08 05:55:37;;;;;;;5.70;5.10;;;7.30;99.90;;;;;;5052073;28;20232;-78
2023/05/08 05:58:04;;;;;;;7.17;5.10;;;7.30;99.90;;;;;;5056318;28;20239;-78
2023/05/08 06:00:33;;;;;;;5.70;5.00;;;7.40;99.90;;;;;;5049094;28;20760;-78
2023/05/08 06:03:01;;;;;;;6.20;5.37;;;7.40;99.90;;;;;;5040702;28;20922;-78
2023/05/08 06:05:27;;;;;;;6.27;5.57;;;7.50;99.90;;;;;;5060418;28;20221;-78
2023/05/08 06:07:54;;;;;;;5.20;4.70;;;7.60;99.90;;;;;;5063426;28;20245;-78
2023/05/08 06:10:21;;;;;;;5.20;4.70;;;7.60;99.90;;;;;;5063432;28;20229;-78
2023/05/08 06:12:50;;;;;;;5.93;5.33;;;7.70;99.90;;;;;;5061836;28;20233;-78
2023/05/08 06:15:17;;;;;;;6.37;5.23;;;7.80;99.90;;;;;;5062062;28;20210;-78
2023/05/08 06:17:45;;;;;;;5.50;4.97;;;7.80;99.90;;;;;;5054369;28;20905;-78
2023/05/08 06:20:13;;;;;;;6.03;5.20;;;7.80;99.90;;;;;;5057918;28;20834;-78
2023/05/08 06:22:40;;;;;;;11.73;5.90;;;7.90;99.90;;;;;;5065138;28;20237;-78
2023/05/08 06:25:08;;;;;;;6.47;4.80;;;8.00;99.90;;;;;;5063980;28;20227;-78
2023/05/08 06:27:35;;;;;;;6.63;5.40;;;8.10;99.90;;;;;;5064469;28;20844;-78
2023/05/08 06:30:06;;;;;;;7.30;5.63;;;8.10;99.90;;;;;;5062974;28;20734;-78
2023/05/08 06:32:33;;;;;;;5.53;5.03;;;8.30;99.90;;;;;;5059669;28;20287;-78
2023/05/08 06:35:00;;;;;;;5.60;5.10;;;8.50;99.90;;;;;;5064234;28;20226;-78
2023/05/08 06:37:26;;;;;;;6.83;5.97;;;8.50;99.90;;;;;;5065377;28;20631;-78
2023/05/08 06:39:53;;;;;;;8.27;5.53;;;8.60;99.90;;;;;;5060294;28;20676;-78
2023/05/08 06:42:20;;;;;;;5.33;4.83;;;8.80;99.90;;;;;;5066991;28;20222;-78
2023/05/08 06:44:46;;;;;;;6.17;5.13;;;9.00;99.90;;;;;;5060639;28;20227;-78
2023/05/08 06:47:14;;;;;;;5.77;4.97;;;9.30;99.90;;;;;;5060582;28;20236;-78
2023/05/08 06:49:41;;;;;;;5.27;4.77;;;9.60;99.90;;;;;;5061488;28;20277;-78
2023/05/08 06:52:08;;;;;;;6.53;5.20;;;9.90;99.90;;;;;;5057776;28;20235;-78
2023/05/08 06:54:34;;;;;;;6.27;5.20;;;10.20;99.90;;;;;;5058377;28;20741;-79
2023/05/08 06:57:01;;;;;;;6.50;5.43;;;10.40;99.90;;;;;;5062437;28;20706;-79
2023/05/08 06:59:28;;;;;;;5.80;5.20;;;10.60;99.90;;;;;;5057907;28;20228;-78
2023/05/08 07:01:54;;;;;;;5.97;5.10;;;10.70;99.90;;;;;;5063211;28;20664;-79
2023/05/08 07:04:22;;;;;;;6.30;5.17;;;10.80;99.90;;;;;;5059449;28;20760;-81
2023/05/08 07:06:49;;;;;;;7.17;5.40;;;11.00;99.90;;;;;;5063114;28;20319;-81
2023/05/08 07:09:16;;;;;;;5.87;5.20;;;11.20;99.90;;;;;;5062551;28;20828;-78
2023/05/08 07:11:43;;;;;;;5.40;4.90;;;11.40;99.90;;;;;;5063814;28;20242;-81
2023/05/08 07:14:10;;;;;;;5.40;4.90;;;11.80;99.90;;;;;;5058922;28;20238;-81
2023/05/08 07:16:37;;;;;;;5.33;4.83;;;12.30;99.90;;;;;;5060743;28;20310;-78
2023/05/08 07:19:03;;;;;;;6.77;5.10;;;12.90;99.90;;;;;;5054502;28;20224;-79
2023/05/08 07:21:31;;;;;;;5.83;5.13;;;13.50;99.90;;;;;;5058836;28;20314;-79
2023/05/08 07:23:58;;;;;;;5.50;5.00;;;14.00;96.80;;;;;;5058399;28;20703;-80
2023/05/08 07:26:25;;;;;;;5.30;4.80;;;14.30;96.30;;;;;;5063030;28;20221;-79
2023/05/08 07:28:53;;;;;;;6.47;5.00;;;14.60;97.30;;;;;;5056000;28;20227;-82
2023/05/08 07:31:19;;;;;;;7.30;5.00;;;14.80;97.80;;;;;;5060955;28;20871;-80
2023/05/08 07:33:46;;;;;;;5.23;4.70;;;14.90;95.90;;;;;;5063888;28;20226;-79
2023/05/08 07:36:13;;;;;;;6.20;5.13;;;15.00;95.90;;;;;;5050325;28;20557;-80
2023/05/08 07:38:41;;;;;;;5.87;5.30;;;15.10;95.80;;;;;;5063243;28;20218;-79
2023/05/08 07:41:08;;;;;;;5.33;4.83;;;15.20;95.80;;;;;;5062125;28;20238;-78
2023/05/08 07:43:35;;;;;;;5.97;5.37;;;15.40;95.00;;;;;;5062064;28;20230;-81
2023/05/08 07:46:02;;;;;;;5.60;5.07;;;15.60;95.90;;;;;;5062797;28;20225;-79
2023/05/08 07:48:29;;;;;;;6.17;5.50;;;15.70;95.40;;;;;;5056143;28;20231;-82
2023/05/08 07:50:56;;;;;;;6.00;5.27;;;15.90;94.50;;;;;;5056105;28;20239;-80
2023/05/08 07:53:22;;;;;;;6.67;5.20;;;16.10;94.50;;;;;;5061326;28;20992;-81
2023/05/08 07:55:50;;;;;;;6.20;5.60;;;16.40;95.40;;;;;;5064745;28;20219;-79
2023/05/08 07:58:17;;;;;;;7.13;5.77;;;16.70;94.10;;;;;;5061881;28;20220;-80
2023/05/08 08:00:44;;;;;;;5.20;4.70;;;17.00;92.00;;;;;;5062329;28;20224;-81
2023/05/08 08:03:10;;;;;;;6.60;4.70;;;17.10;91.60;;;;;;5061834;28;20254;-81
2023/05/08 08:05:38;;;;;;;8.00;4.80;;;17.30;92.20;;;;;;5061636;28;20223;-81
2023/05/08 08:08:05;;;;;;;6.43;5.67;;;17.30;91.40;;;;;;5051756;28;20866;-79
2023/05/08 08:10:32;;;;;;;5.67;5.07;;;17.20;90.40;;;;;;5059564;28;20235;-79
2023/05/08 08:13:01;;;;;;;6.27;5.30;;;17.20;91.20;;;;;;5062532;28;20241;-80
2023/05/08 08:15:28;;;;;;;6.33;5.73;;;17.20;91.00;;;;;;5057647;28;20219;-79
2023/05/08 08:17:55;;;;;;;6.13;5.53;;;17.10;90.40;;;;;;5063159;28;20227;-79
2023/05/08 08:20:22;;;;;;;6.47;5.80;;;17.20;91.30;;;;;;5063050;28;20218;-79
2023/05/08 08:22:48;;;;;;;6.27;5.67;;;17.30;91.70;;;;;;5056341;28;20250;-80
2023/05/08 08:25:15;;;;;;;5.90;5.40;;;17.40;91.60;;;;;;5061161;28;21641;-79
2023/05/08 08:27:42;;;;;;;5.53;5.03;;;17.50;89.20;;;;;;5062895;28;20913;-79
2023/05/08 08:30:10;;;;;;;5.60;5.10;;;17.60;90.80;;;;;;5066666;28;20235;-79
2023/05/08 08:32:37;;;;;;;6.20;5.60;;;17.80;90.80;;;;;;5057960;28;20217;-79
2023/05/08 08:35:04;;;;;;;5.97;5.47;;;17.80;90.40;;;;;;5065063;28;20235;-79
2023/05/08 08:37:31;;;;;;;5.70;5.10;;;18.00;89.20;;;;;;5063382;28;20223;-80
2023/05/08 08:39:57;;;;;;;5.75;5.15;;;18.10;90.10;;;;;;5064632;28;20215;-79
2023/05/08 08:42:24;;;;;;;7.53;5.73;;;18.20;86.80;;;;;;5066515;28;20227;-79
2023/05/08 08:44:51;;;;;;;6.50;5.87;;;18.20;86.00;;;;;;5061650;28;20312;-80
2023/05/08 08:47:22;;;;;;;6.07;5.47;;;18.30;86.00;;;;;;5064986;28;20306;-79
2023/05/08 08:49:50;;;;;;;6.27;5.67;;;18.40;88.30;;;;;;5066823;28;20227;-79
2023/05/08 08:52:26;;;;;;;6.32;5.18;;;18.50;87.40;;;;;;5063452;28;20552;-79
2023/05/08 08:54:56;;;;;;;5.68;5.18;;;18.80;88.90;;;;;;5063434;28;20230;-79
2023/05/08 08:57:24;;;;;;;5.60;5.10;;;19.10;88.50;;;;;;5059835;28;20235;-80
2023/05/08 08:59:53;;;;;;;5.82;5.05;;;19.50;87.90;;;;;;5058298;28;20219;-82
2023/05/08 09:02:22;;;;;;;5.80;5.13;;;19.90;87.10;;;;;;5065237;28;20223;-79
2023/05/08 09:04:49;;;;;;;5.65;5.05;;;20.20;84.10;;;;;;5059661;28;20215;-79
2023/05/08 09:07:18;;;;;;;6.13;5.55;;;20.50;85.10;;;;;;5060001;28;20237;-79
2023/05/08 09:09:45;;;;;;;5.75;5.25;;;20.80;82.80;;;;;;5064835;28;20599;-79
2023/05/08 09:12:13;;;;;;;5.50;5.00;;;21.00;83.50;;;;;;5060080;28;20595;-80
2023/05/08 09:14:39;;;;;;;6.28;5.43;;;21.10;79.00;;;;;;5060386;28;20223;-82
2023/05/08 09:17:06;;;;;;;6.13;5.20;;;20.80;74.20;;;;;;5056543;28;20225;-79
2023/05/08 09:19:35;;;;;;;6.10;4.88;;;20.80;76.90;;;;;;5066574;28;20250;-80
2023/05/08 09:22:05;;;;;;;5.40;4.90;;;20.70;78.10;;;;;;5065806;28;20230;-81
2023/05/08 09:24:54;;;;;;;5.75;5.20;;;20.90;80.70;;;;;;5065940;28;20219;-79
2023/05/08 09:27:22;;;;;;;5.40;4.35;;;21.10;76.90;;;;;;5062153;28;20216;-80
2023/05/08 09:29:59;;;;;;;5.05;4.57;;;21.40;80.50;;;;;;5063924;28;20257;-80
2023/05/08 09:32:27;;;;;;;5.60;4.95;;;21.60;74.20;;;;;;5060035;28;20227;-80
2023/05/08 09:34:55;;;;;;;6.03;4.65;;;21.90;74.50;;;;;;5065488;28;20219;-80
2023/05/08 09:37:22;;;;;;;4.72;4.32;;;22.00;74.60;;;;;;5059090;28;20447;-80
2023/05/08 09:39:48;;;;;;;4.93;4.45;;;22.00;73.00;;;;;;5061458;28;20327;-81
2023/05/08 09:42:15;;;;;;;5.50;4.50;;;22.10;73.10;;;;;;5060245;28;20227;-80
2023/05/08 09:44:46;;;;;;;6.63;4.88;;;22.30;76.00;;;;;;5061701;28;20800;-81
2023/05/08 09:47:15;;;;;;;5.55;4.88;;;22.50;74.10;;;;;;5062147;28;20232;-82
2023/05/08 09:49:59;;;;;;;5.53;4.70;;;22.80;72.50;;;;;;5065561;28;20318;-79
2023/05/08 09:52:27;;;;;;;6.13;4.32;;;23.00;69.60;;;;;;5060053;28;20223;-80
2023/05/08 09:54:58;;;;;;;5.25;4.60;;;23.20;70.10;;;;;;5065286;28;20237;-80
2023/05/08 09:57:25;;;;;;;5.10;4.40;;;23.30;68.00;;;;;;5060032;28;20227;-80
2023/05/08 09:59:59;;;;;;;4.88;4.47;;;23.30;69.60;;;;;;5061853;28;20227;-80
2023/05/08 10:02:26;;;;;;;5.05;4.25;;;23.40;70.90;;;;;;5059306;28;20237;-80
2023/05/08 10:04:53;;;;;;;4.70;4.30;;;23.60;71.40;;;;;;5062591;28;20223;-80
2023/05/08 10:07:29;;;;;;;4.35;3.95;;;23.80;71.50;;;;;;5057298;28;20219;-83
2023/05/08 10:10:00;;;;;;;4.90;3.83;;;24.20;70.80;;;;;;5062804;28;20738;-80
2023/05/08 10:12:27;;;;;;;4.63;4.22;;;24.50;70.00;;;;;;5065207;28;20234;-81
2023/05/08 10:14:54;;;;;;;4.22;3.83;;;24.60;64.50;;;;;;5057867;28;20265;-81
2023/05/08 10:17:26;;;;;;;4.40;4.00;;;24.60;67.10;;;;;;5063187;28;20223;-80
2023/05/08 10:19:58;;;;;;;4.72;4.13;;;24.50;65.60;;;;;;5065401;28;20227;-80
2023/05/08 10:22:25;;;;;;;4.50;4.07;;;24.40;64.40;;;;;;5063027;28;20227;-80
2023/05/08 10:24:57;;;;;;;5.28;4.38;;;24.20;65.60;;;;;;5064693;28;20281;-79
2023/05/08 10:27:34;;;;;;;5.47;4.28;;;23.90;65.50;;;;;;5056879;28;20329;-79
2023/05/08 10:30:03;;;;;;;4.75;4.32;;;23.70;65.60;;;;;;5059141;28;20226;-81
2023/05/08 10:32:37;;;;;;;6.47;4.03;;;23.50;64.20;;;;;;5063452;28;20643;-80
2023/05/08 10:35:05;;;;;;;5.03;3.92;;;23.20;63.80;;;;;;5064552;28;20963;-80
2023/05/08 10:37:35;;;;;;;5.75;3.88;;;22.90;62.60;;;;;;5063074;28;20641;-79
2023/05/08 10:40:05;;;;;;;8.75;7.85;;;22.40;63.70;;;;;;5061763;28;20242;-81
2023/05/08 10:42:33;;;;;;;5.80;4.30;;;22.10;65.50;;;;;;5054317;28;20588;-81
2023/05/08 10:45:01;;;;;;;4.28;3.80;;;21.60;64.00;;;;;;5058437;28;20254;-80
2023/05/08 10:47:36;;;;;;;5.82;4.28;;;21.20;65.60;;;;;;5063075;28;20689;-83
2023/05/08 10:50:12;;;;;;;4.20;3.80;;;20.90;67.00;;;;;;5057641;28;20877;-79
2023/05/08 10:52:47;;;;;;;5.18;3.70;;;20.70;68.20;;;;;;5064520;28;20601;-80
2023/05/08 10:55:22;;;;;;;3.90;3.50;;;20.50;67.90;;;;;;5063525;28;20227;-80
2023/05/08 10:58:06;;;;;;;4.82;3.78;;;20.60;69.60;;;;;;5064342;28;20272;-79
2023/05/08 11:01:12;;;;;;;3.95;3.35;;;20.80;69.00;;;;;;5057928;28;20273;-81
2023/05/08 11:03:41;;;;;;;3.47;3.17;;;21.20;69.70;;;;;;5057224;28;20223;-80
2023/05/08 11:06:08;;;;;;;3.20;2.90;;;21.50;66.90;;;;;;5062337;28;20223;-80
2023/05/08 11:08:45;;;;;;;3.33;3.03;;;21.80;68.20;;;;;;5060448;28;20223;-80
2023/05/08 11:11:27;;;;;;;3.45;2.70;;;22.20;66.30;;;;;;5061358;28;20219;-79
2023/05/08 11:13:59;;;;;;;3.67;2.95;;;22.40;65.20;;;;;;5056596;28;20227;-81
2023/05/08 11:17:04;;;;;;;3.17;2.85;;;22.50;61.60;;;;;;5054023;28;20282;-81
2023/05/08 11:19:31;;;;;;;2.90;2.42;;;22.60;64.20;;;;;;5059274;28;20229;-81
2023/05/08 11:22:15;;;;;;;5.15;2.50;;;22.70;65.30;;;;;;5055194;28;20653;-80
2023/05/08 11:24:48;;;;;;;2.47;2.28;;;22.90;65.20;;;;;;5060138;28;20227;-81
2023/05/08 11:27:16;;;;;;;3.45;2.55;;;23.10;62.40;;;;;;5063353;28;20321;-79
2023/05/08 11:29:43;;;;;;;3.08;2.20;;;23.30;63.30;;;;;;5061973;28;20219;-81
2023/05/08 11:32:10;;;;;;;2.10;1.90;;;23.60;63.40;;;;;;5061752;28;20598;-81
2023/05/08 11:34:48;;;;;;;3.50;2.17;;;23.80;60.50;;;;;;5063088;28;20219;-80
2023/05/08 11:37:19;;;;;;;3.50;2.35;;;24.20;59.40;;;;;;5058875;28;20222;-80
2023/05/08 11:39:45;;;;;;;2.45;2.20;;;24.20;56.50;;;;;;5061328;28;20311;-80
2023/05/08 11:42:35;;;;;;;2.42;2.15;;;24.20;56.10;;;;;;5061242;28;20906;-82
2023/05/08 11:45:07;;;;;;;3.83;1.80;;;24.30;58.40;;;;;;5059612;28;20215;-81
2023/05/08 11:47:38;;;;;;;2.08;1.98;;;24.40;58.50;;;;;;5057599;28;20340;-81
2023/05/08 11:50:06;;;;;;;2.15;1.90;;;24.50;56.30;;;;;;5061637;28;20651;-80
2023/05/08 11:52:34;;;;;;;3.35;2.00;;;24.50;56.10;;;;;;5064218;28;20229;-81
2023/05/08 11:55:03;;;;;;;2.72;2.00;;;24.40;53.30;;;;;;5057677;28;20231;-81
2023/05/08 11:57:31;;;;;;;3.65;2.40;;;24.30;54.00;;;;;;5059889;28;20602;-80
2023/05/08 12:00:04;;;;;;;2.25;1.92;;;24.30;55.20;;;;;;5063568;28;20277;-80
2023/05/08 12:02:37;;;;;;;2.63;2.00;;;24.20;53.50;;;;;;5061181;28;20947;-81
2023/05/08 12:05:04;;;;;;;3.95;2.00;;;24.00;54.60;;;;;;5067567;28;20734;-81
2023/05/08 12:07:31;;;;;;;2.67;2.22;;;24.00;55.80;;;;;;5060064;28;20227;-80
2023/05/08 12:09:57;;;;;;;2.50;1.90;;;23.90;53.00;;;;;;5067118;28;20571;-82
2023/05/08 12:12:35;;;;;;;2.10;1.90;;;23.80;54.70;;;;;;5064096;28;20231;-84
2023/05/08 12:15:06;;;;;;;2.65;2.00;;;23.90;55.70;;;;;;5066825;28;20235;-84
2023/05/08 12:17:33;;;;;;;2.70;1.95;;;24.00;55.10;;;;;;5062498;28;20223;-80
2023/05/08 12:20:09;;;;;;;1.95;1.75;;;24.10;53.20;;;;;;5060498;28;20319;-81
2023/05/08 12:22:36;;;;;;;3.10;1.90;;;24.10;52.80;;;;;;5058870;28;20918;-80
2023/05/08 12:25:04;;;;;;;2.42;1.60;;;24.20;53.40;;;;;;5062920;28;20581;-80
2023/05/08 12:27:30;;;;;;;1.70;1.52;;;24.00;51.40;;;;;;5061233;28;20231;-81
2023/05/08 12:29:57;;;;;;;2.85;1.60;;;23.90;53.30;;;;;;5066694;28;20227;-80
2023/05/08 12:32:25;;;;;;;2.20;1.50;;;23.80;53.90;;;;;;5063421;28;20311;-80
2023/05/08 12:34:52;;;;;;;1.92;1.35;;;23.80;54.20;;;;;;5064464;28;20223;-82
2023/05/08 12:37:24;;;;;;;1.75;1.50;;;23.90;53.70;;;;;;5067130;28;20231;-82
2023/05/08 12:39:50;;;;;;;1.73;1.35;;;24.00;53.90;;;;;;5065285;28;20216;-83
2023/05/08 12:42:17;;;;;;;2.22;1.58;;;24.20;54.90;;;;;;5063256;28;20704;-80
2023/05/08 12:44:50;;;;;;;2.97;1.60;;;24.30;54.20;;;;;;5059776;28;20317;-80
2023/05/08 12:47:19;;;;;;;2.42;1.70;;;24.40;51.20;;;;;;5064045;28;20235;-81
2023/05/08 12:49:49;;;;;;;2.03;1.50;;;24.40;51.80;;;;;;5060416;28;20225;-82
2023/05/08 12:52:16;;;;;;;2.15;1.58;;;24.20;50.10;;;;;;5056600;28;20232;-77
2023/05/08 12:54:47;;;;;;;2.28;1.45;;;24.00;51.60;;;;;;5065405;28;20427;-77
2023/05/08 12:57:15;;;;;;;2.05;1.65;;;23.90;52.30;;;;;;5063682;28;20219;-77
2023/05/08 12:59:43;;;;;;;2.42;1.60;;;23.80;51.80;;;;;;5060528;28;20223;-77
2023/05/08 13:02:15;;;;;;;3.70;1.50;;;23.60;50.60;;;;;;5064388;28;20227;-77
2023/05/08 13:04:42;;;;;;;1.83;1.38;;;23.60;52.30;;;;;;5066309;28;20230;-77